sensor_id;sensor_type;location;lat;lon;timestamp;pressure;altitude;pressure_sealevel;temperature;humidity
8101;BME280;4093;53.470;9.832;2023-07-08T00:00:15;102149.31;;;22.73;61.70
8101;BME280;4093;53.470;9.832;2023-07-08T00:06:32;102117.63;;;22.35;62.34
8101;BME280;4093;53.470;9.832;2023-07-08T00:08:59;102130.44;;;22.43;62.08
8101;BME280;4093;53.470;9.832;2023-07-08T00:11:28;102116.19;;;22.28;62.46
8101;BME280;4093;53.470;9.832;2023-07-08T00:13:57;102140.66;;;22.51;62.26
8101;BME280;4093;53.470;9.832;2023-07-08T00:16:25;102133.94;;;22.44;62.24
8101;BME280;4093;53.470;9.832;2023-07-08T00:18:53;102117.22;;;22.24;62.64
8101;BME280;4093;53.470;9.832;2023-07-08T00:21:20;102123.19;;;22.48;62.28
8101;BME280;4093;53.470;9.832;2023-07-08T00:23:49;102118.78;;;22.49;61.99
8101;BME280;4093;53.470;9.832;2023-07-08T00:26:21;102070.91;;;21.78;63.30
8101;BME280;4093;53.470;9.832;2023-07-08T00:28:49;102117.22;;;22.24;62.83
8101;BME280;4093;53.470;9.832;2023-07-08T00:31:19;102116.09;;;22.30;62.21
8101;BME280;4093;53.470;9.832;2023-07-08T00:33:50;102108.00;;;22.14;62.79
8101;BME280;4093;53.470;9.832;2023-07-08T00:36:23;102097.00;;;21.84;63.07
8101;BME280;4093;53.470;9.832;2023-07-08T00:38:51;102089.56;;;21.73;63.89
8101;BME280;4093;53.470;9.832;2023-07-08T00:41:22;102105.44;;;21.92;63.72
8101;BME280;4093;53.470;9.832;2023-07-08T00:43:52;102072.75;;;21.55;63.91
8101;BME280;4093;53.470;9.832;2023-07-08T00:46:31;102097.06;;;21.62;64.37
8101;BME280;4093;53.470;9.832;2023-07-08T00:49:15;102099.34;;;21.49;64.88
8101;BME280;4093;53.470;9.832;2023-07-08T00:51:44;102106.25;;;21.52;64.15
8101;BME280;4093;53.470;9.832;2023-07-08T00:54:13;102081.28;;;21.40;64.36
8101;BME280;4093;53.470;9.832;2023-07-08T00:56:43;102093.81;;;21.33;64.67
8101;BME280;4093;53.470;9.832;2023-07-08T00:59:17;102076.34;;;20.88;66.05
8101;BME280;4093;53.470;9.832;2023-07-08T01:01:48;102098.31;;;21.09;65.67
8101;BME280;4093;53.470;9.832;2023-07-08T01:04:20;102105.81;;;21.18;64.98
8101;BME280;4093;53.470;9.832;2023-07-08T01:06:54;102128.63;;;21.41;64.78
8101;BME280;4093;53.470;9.832;2023-07-08T01:09:26;102104.00;;;21.20;64.89
8101;BME280;4093;53.470;9.832;2023-07-08T01:11:57;102087.81;;;20.86;66.28
8101;BME280;4093;53.470;9.832;2023-07-08T01:14:26;102107.81;;;20.90;66.66
8101;BME280;4093;53.470;9.832;2023-07-08T01:16:59;102078.88;;;20.44;68.02
8101;BME280;4093;53.470;9.832;2023-07-08T01:19:28;102101.63;;;20.69;66.94
8101;BME280;4093;53.470;9.832;2023-07-08T01:22:01;102095.78;;;20.61;67.34
8101;BME280;4093;53.470;9.832;2023-07-08T01:24:30;102064.38;;;19.59;70.94
8101;BME280;4093;53.470;9.832;2023-07-08T01:27:00;102099.19;;;19.91;70.55
8101;BME280;4093;53.470;9.832;2023-07-08T01:29:28;102120.00;;;20.20;69.83
8101;BME280;4093;53.470;9.832;2023-07-08T01:31:57;102133.75;;;20.53;69.11
8101;BME280;4093;53.470;9.832;2023-07-08T01:34:29;102087.41;;;20.26;68.63
8101;BME280;4093;53.470;9.832;2023-07-08T01:36:59;102107.13;;;20.38;68.67
8101;BME280;4093;53.470;9.832;2023-07-08T01:39:29;102092.19;;;20.15;69.06
8101;BME280;4093;53.470;9.832;2023-07-08T01:41:58;102112.00;;;20.25;69.46
8101;BME280;4093;53.470;9.832;2023-07-08T01:44:28;102089.44;;;19.94;70.06
8101;BME280;4093;53.470;9.832;2023-07-08T01:46:58;102073.81;;;19.10;73.11
8101;BME280;4093;53.470;9.832;2023-07-08T01:49:27;102117.16;;;19.76;70.91
8101;BME280;4093;53.470;9.832;2023-07-08T01:51:56;102080.75;;;19.39;71.45
8101;BME280;4093;53.470;9.832;2023-07-08T01:54:23;102097.50;;;19.35;72.03
8101;BME280;4093;53.470;9.832;2023-07-08T01:56:55;102097.59;;;19.32;71.68
8101;BME280;4093;53.470;9.832;2023-07-08T01:59:23;102128.78;;;19.69;70.55
8101;BME280;4093;53.470;9.832;2023-07-08T02:01:51;102105.81;;;19.49;70.38
8101;BME280;4093;53.470;9.832;2023-07-08T02:04:22;102124.66;;;19.60;70.48
8101;BME280;4093;53.470;9.832;2023-07-08T02:06:51;102116.41;;;19.73;69.59
8101;BME280;4093;53.470;9.832;2023-07-08T02:09:19;102115.78;;;19.64;69.83
8101;BME280;4093;53.470;9.832;2023-07-08T02:11:47;102097.50;;;19.35;70.53
8101;BME280;4093;53.470;9.832;2023-07-08T02:14:16;102114.09;;;19.35;70.80
8101;BME280;4093;53.470;9.832;2023-07-08T02:16:44;102105.91;;;19.46;70.40
8101;BME280;4093;53.470;9.832;2023-07-08T02:19:12;102113.06;;;19.68;69.71
8101;BME280;4093;53.470;9.832;2023-07-08T02:21:39;102140.19;;;20.20;68.18
8101;BME280;4093;53.470;9.832;2023-07-08T02:24:08;102096.47;;;19.67;69.97
8101;BME280;4093;53.470;9.832;2023-07-08T02:26:35;102073.50;;;19.47;70.06
8101;BME280;4093;53.470;9.832;2023-07-08T02:29:03;102110.16;;;20.02;68.50
8101;BME280;4093;53.470;9.832;2023-07-08T02:31:32;102111.38;;;19.92;68.90
8101;BME280;4093;53.470;9.832;2023-07-08T02:34:00;102094.25;;;19.81;69.45
8101;BME280;4093;53.470;9.832;2023-07-08T02:36:29;102122.75;;;19.92;70.01
8101;BME280;4093;53.470;9.832;2023-07-08T02:38:56;102093.59;;;19.75;69.69
8101;BME280;4093;53.470;9.832;2023-07-08T02:41:24;102093.78;;;19.42;71.12
8101;BME280;4093;53.470;9.832;2023-07-08T02:43:51;102083.00;;;19.23;71.75
8101;BME280;4093;53.470;9.832;2023-07-08T02:46:19;102104.31;;;19.40;71.03
8101;BME280;4093;53.470;9.832;2023-07-08T02:48:48;102118.94;;;19.48;71.11
8101;BME280;4093;53.470;9.832;2023-07-08T02:51:16;102109.88;;;19.31;71.80
8101;BME280;4093;53.470;9.832;2023-07-08T02:53:44;102120.19;;;19.36;71.60
8101;BME280;4093;53.470;9.832;2023-07-08T02:56:12;102138.03;;;19.53;70.99
8101;BME280;4093;53.470;9.832;2023-07-08T02:58:39;102146.97;;;20.00;69.19
8101;BME280;4093;53.470;9.832;2023-07-08T03:01:08;102117.25;;;19.73;70.39
8101;BME280;4093;53.470;9.832;2023-07-08T03:03:36;102118.09;;;19.47;71.11
8101;BME280;4093;53.470;9.832;2023-07-08T03:06:06;102094.16;;;19.02;72.70
8101;BME280;4093;53.470;9.832;2023-07-08T03:08:33;102145.47;;;19.67;70.57
8101;BME280;4093;53.470;9.832;2023-07-08T03:11:03;102138.03;;;19.81;70.33
8101;BME280;4093;53.470;9.832;2023-07-08T03:13:32;102125.56;;;19.86;69.73
8101;BME280;4093;53.470;9.832;2023-07-08T03:16:01;102099.31;;;19.33;71.44
8101;BME280;4093;53.470;9.832;2023-07-08T03:18:29;102106.50;;;19.28;72.26
8101;BME280;4093;53.470;9.832;2023-07-08T03:20:57;102104.63;;;19.58;71.21
8101;BME280;4093;53.470;9.832;2023-07-08T03:23:27;102147.88;;;20.24;69.44
8101;BME280;4093;53.470;9.832;2023-07-08T03:25:54;102131.25;;;19.99;69.89
8101;BME280;4093;53.470;9.832;2023-07-08T03:28:22;102128.75;;;20.21;68.78
8101;BME280;4093;53.470;9.832;2023-07-08T03:30:52;102089.56;;;19.64;70.48
8101;BME280;4093;53.470;9.832;2023-07-08T03:33:20;102082.41;;;19.41;71.37
8101;BME280;4093;53.470;9.832;2023-07-08T03:35:48;102118.13;;;19.74;70.60
8101;BME280;4093;53.470;9.832;2023-07-08T03:38:16;102139.78;;;20.05;69.81
8101;BME280;4093;53.470;9.832;2023-07-08T03:40:45;102139.47;;;20.15;69.37
8101;BME280;4093;53.470;9.832;2023-07-08T03:43:13;102122.72;;;19.94;70.13
8101;BME280;4093;53.470;9.832;2023-07-08T03:45:41;102090.28;;;19.41;71.79
8101;BME280;4093;53.470;9.832;2023-07-08T03:48:09;102117.69;;;19.59;71.85
8101;BME280;4093;53.470;9.832;2023-07-08T03:50:38;102106.50;;;19.28;72.26
8101;BME280;4093;53.470;9.832;2023-07-08T03:53:06;102118.41;;;19.38;71.90
8101;BME280;4093;53.470;9.832;2023-07-08T03:55:33;102147.13;;;19.96;70.30
8101;BME280;4093;53.470;9.832;2023-07-08T03:58:03;102119.38;;;19.88;70.33
8101;BME280;4093;53.470;9.832;2023-07-08T04:00:30;102140.50;;;20.10;nan
8101;BME280;4093;53.470;9.832;2023-07-08T04:02:58;102092.19;;;19.64;70.70
8101;BME280;4093;53.470;9.832;2023-07-08T04:05:26;102148.03;;;20.21;69.59
8101;BME280;4093;53.470;9.832;2023-07-08T04:07:55;102105.59;;;19.82;70.60
8101;BME280;4093;53.470;9.832;2023-07-08T04:10:23;102154.47;;;20.36;69.40
8101;BME280;4093;53.470;9.832;2023-07-08T04:12:50;102154.78;;;20.53;68.67
8101;BME280;4093;53.470;9.832;2023-07-08T04:15:19;102129.84;;;20.64;67.62
8101;BME280;4093;53.470;9.832;2023-07-08T04:17:52;102127.63;;;20.53;68.34
8101;BME280;4093;53.470;9.832;2023-07-08T04:20:22;102097.41;;;20.16;69.52
8101;BME280;4093;53.470;9.832;2023-07-08T04:22:50;102103.28;;;20.23;69.44
8101;BME280;4093;53.470;9.832;2023-07-08T04:25:18;102171.75;;;22.02;64.66
8101;BME280;4093;53.470;9.832;2023-07-08T04:27:46;102130.66;;;22.38;62.61
8101;BME280;4093;53.470;9.832;2023-07-08T04:30:22;102142.56;;;23.95;58.80
8101;BME280;4093;53.470;9.832;2023-07-08T04:32:51;102094.06;;;24.30;56.90
8101;BME280;4093;53.470;9.832;2023-07-08T04:35:19;102067.41;;;24.50;56.20
8101;BME280;4093;53.470;9.832;2023-07-08T04:37:47;102105.72;;;26.27;52.42
8101;BME280;4093;53.470;9.832;2023-07-08T04:40:18;102069.34;;;26.85;50.63
8101;BME280;4093;53.470;9.832;2023-07-08T04:42:46;101998.63;;;25.12;52.66
8101;BME280;4093;53.470;9.832;2023-07-08T04:45:16;102031.69;;;26.92;50.83
8101;BME280;4093;53.470;9.832;2023-07-08T04:47:45;102023.69;;;26.10;52.22
8101;BME280;4093;53.470;9.832;2023-07-08T04:50:20;102033.81;;;26.73;51.41
8101;BME280;4093;53.470;9.832;2023-07-08T04:52:48;102029.56;;;25.86;53.33
8101;BME280;4093;53.470;9.832;2023-07-08T04:55:16;101994.41;;;24.93;54.27
8101;BME280;4093;53.470;9.832;2023-07-08T04:57:45;101984.56;;;24.50;54.82
8101;BME280;4093;53.470;9.832;2023-07-08T05:00:15;102003.88;;;25.13;54.20
8101;BME280;4093;53.470;9.832;2023-07-08T05:02:45;102011.09;;;25.84;52.44
8101;BME280;4093;53.470;9.832;2023-07-08T05:05:13;102012.94;;;26.54;50.80
8101;BME280;4093;53.470;9.832;2023-07-08T05:07:40;101998.31;;;26.88;49.80
8101;BME280;4093;53.470;9.832;2023-07-08T05:10:09;101990.38;;;27.54;48.55
8101;BME280;4093;53.470;9.832;2023-07-08T05:12:36;101982.91;;;26.39;50.41
8101;BME280;4093;53.470;9.832;2023-07-08T05:15:05;101995.97;;;26.57;50.25
8101;BME280;4093;53.470;9.832;2023-07-08T05:17:33;101968.91;;;26.23;50.21
8101;BME280;4093;53.470;9.832;2023-07-08T05:20:03;101967.78;;;26.27;50.33
8101;BME280;4093;53.470;9.832;2023-07-08T05:22:31;101975.38;;;27.14;48.42
8101;BME280;4093;53.470;9.832;2023-07-08T05:24:58;101987.28;;;26.55;50.35
8101;BME280;4093;53.470;9.832;2023-07-08T05:27:26;102003.94;;;28.87;46.74
8101;BME280;4093;53.470;9.832;2023-07-08T05:29:54;101976.91;;;28.56;45.87
8101;BME280;4093;53.470;9.832;2023-07-08T05:32:22;101973.59;;;27.79;47.66
8101;BME280;4093;53.470;9.832;2023-07-08T05:34:51;101984.06;;;27.29;48.88
8101;BME280;4093;53.470;9.832;2023-07-08T05:37:21;101997.28;;;29.96;44.26
8101;BME280;4093;53.470;9.832;2023-07-08T05:39:51;101974.28;;;30.39;42.19
8101;BME280;4093;53.470;9.832;2023-07-08T05:42:19;101986.25;;;28.25;46.70
8101;BME280;4093;53.470;9.832;2023-07-08T05:44:47;101992.34;;;31.32;42.01
8101;BME280;4093;53.470;9.832;2023-07-08T05:47:15;101978.31;;;28.12;46.62
8101;BME280;4093;53.470;9.832;2023-07-08T05:49:43;101977.25;;;27.76;47.11
8101;BME280;4093;53.470;9.832;2023-07-08T05:52:10;102001.72;;;28.07;47.54
8101;BME280;4093;53.470;9.832;2023-07-08T05:54:41;101998.19;;;28.19;46.92
8101;BME280;4093;53.470;9.832;2023-07-08T05:57:10;101975.16;;;27.68;47.05
8101;BME280;4093;53.470;9.832;2023-07-08T05:59:38;101997.50;;;27.40;48.88
8101;BME280;4093;53.470;9.832;2023-07-08T06:02:06;101981.25;;;28.20;46.62
8101;BME280;4093;53.470;9.832;2023-07-08T06:04:36;101980.88;;;28.01;46.28
8101;BME280;4093;53.470;9.832;2023-07-08T06:07:04;101974.81;;;28.35;44.75
8101;BME280;4093;53.470;9.832;2023-07-08T06:09:32;101991.03;;;26.65;48.67
8101;BME280;4093;53.470;9.832;2023-07-08T06:12:02;101974.66;;;26.44;48.38
8101;BME280;4093;53.470;9.832;2023-07-08T06:14:29;101990.13;;;27.18;47.12
8101;BME280;4093;53.470;9.832;2023-07-08T06:16:57;101973.44;;;26.76;48.08
8101;BME280;4093;53.470;9.832;2023-07-08T06:19:25;101991.13;;;27.30;48.82
8101;BME280;4093;53.470;9.832;2023-07-08T06:21:53;101976.66;;;29.76;43.38
8101;BME280;4093;53.470;9.832;2023-07-08T06:24:39;101976.88;;;28.80;44.88
8101;BME280;4093;53.470;9.832;2023-07-08T06:27:09;101998.84;;;29.88;43.06
8101;BME280;4093;53.470;9.832;2023-07-08T06:29:37;101994.28;;;29.32;44.16
8101;BME280;4093;53.470;9.832;2023-07-08T06:32:06;101982.84;;;28.83;45.72
8101;BME280;4093;53.470;9.832;2023-07-08T06:34:34;101967.28;;;28.66;45.16
8101;BME280;4093;53.470;9.832;2023-07-08T06:37:02;101976.97;;;28.43;45.60
8101;BME280;4093;53.470;9.832;2023-07-08T06:39:30;101984.78;;;31.16;42.32
8101;BME280;4093;53.470;9.832;2023-07-08T06:41:58;101964.25;;;29.52;43.50
8101;BME280;4093;53.470;9.832;2023-07-08T06:44:28;101986.94;;;30.26;43.26
8101;BME280;4093;53.470;9.832;2023-07-08T06:46:55;101972.28;;;31.38;41.41
8101;BME280;4093;53.470;9.832;2023-07-08T06:49:23;101977.56;;;32.39;39.84
8101;BME280;4093;53.470;9.832;2023-07-08T06:51:51;101996.00;;;31.52;41.56
8101;BME280;4093;53.470;9.832;2023-07-08T06:54:18;101999.81;;;30.64;42.50
8101;BME280;4093;53.470;9.832;2023-07-08T06:56:46;102011.13;;;29.33;45.03
8101;BME280;4093;53.470;9.832;2023-07-08T06:59:14;102000.84;;;28.80;45.92
8101;BME280;4093;53.470;9.832;2023-07-08T07:01:43;102007.31;;;30.27;43.16
8101;BME280;4093;53.470;9.832;2023-07-08T07:04:10;102000.22;;;28.76;45.42
8101;BME280;4093;53.470;9.832;2023-07-08T07:06:38;102018.91;;;29.58;45.05
8101;BME280;4093;53.470;9.832;2023-07-08T07:09:06;101996.66;;;30.15;43.90
8101;BME280;4093;53.470;9.832;2023-07-08T07:11:33;101998.38;;;29.25;45.51
8101;BME280;4093;53.470;9.832;2023-07-08T07:14:01;101996.25;;;30.86;42.97
8101;BME280;4093;53.470;9.832;2023-07-08T07:16:29;101962.41;;;31.59;40.78
8101;BME280;4093;53.470;9.832;2023-07-08T07:18:58;101984.13;;;32.76;39.87
8101;BME280;4093;53.470;9.832;2023-07-08T07:21:27;101977.34;;;32.81;39.18
8101;BME280;4093;53.470;9.832;2023-07-08T07:23:55;101968.78;;;33.54;38.83
8101;BME280;4093;53.470;9.832;2023-07-08T07:26:23;101977.50;;;33.46;39.38
8101;BME280;4093;53.470;9.832;2023-07-08T07:28:50;101986.09;;;32.74;40.47
8101;BME280;4093;53.470;9.832;2023-07-08T07:31:18;101974.53;;;34.77;37.38
8101;BME280;4093;53.470;9.832;2023-07-08T07:33:46;101973.00;;;31.70;40.95
8101;BME280;4093;53.470;9.832;2023-07-08T07:36:15;101968.16;;;30.59;43.54
8101;BME280;4093;53.470;9.832;2023-07-08T07:38:43;101983.81;;;31.17;42.50
8101;BME280;4093;53.470;9.832;2023-07-08T07:41:10;101977.72;;;31.57;41.78
8101;BME280;4093;53.470;9.832;2023-07-08T07:43:39;101982.09;;;30.95;42.48
8101;BME280;4093;53.470;9.832;2023-07-08T07:46:07;101984.97;;;32.47;40.41
8101;BME280;4093;53.470;9.832;2023-07-08T07:48:36;101966.19;;;31.56;40.93
8101;BME280;4093;53.470;9.832;2023-07-08T07:51:05;101982.84;;;32.51;41.04
8101;BME280;4093;53.470;9.832;2023-07-08T07:53:38;101964.59;;;31.44;40.85
8101;BME280;4093;53.470;9.832;2023-07-08T07:56:06;101969.22;;;30.13;42.56
8101;BME280;4093;53.470;9.832;2023-07-08T07:58:34;101978.09;;;32.14;39.29
8101;BME280;4093;53.470;9.832;2023-07-08T08:01:02;101971.16;;;32.01;40.04
8101;BME280;4093;53.470;9.832;2023-07-08T08:03:29;101992.56;;;32.90;39.46
8101;BME280;4093;53.470;9.832;2023-07-08T08:05:57;101988.56;;;34.36;38.68
8101;BME280;4093;53.470;9.832;2023-07-08T08:08:26;101959.38;;;32.33;38.84
8101;BME280;4093;53.470;9.832;2023-07-08T08:10:55;101970.97;;;31.93;41.00
8101;BME280;4093;53.470;9.832;2023-07-08T08:13:23;101963.81;;;32.54;38.34
8101;BME280;4093;53.470;9.832;2023-07-08T08:15:55;101976.91;;;31.36;40.20
8101;BME280;4093;53.470;9.832;2023-07-08T08:18:24;101979.09;;;30.88;41.27
8101;BME280;4093;53.470;9.832;2023-07-08T08:20:51;101972.50;;;31.86;39.96
8101;BME280;4093;53.470;9.832;2023-07-08T08:23:19;101965.13;;;31.38;40.70
8101;BME280;4093;53.470;9.832;2023-07-08T08:25:47;101986.69;;;34.18;37.74
8101;BME280;4093;53.470;9.832;2023-07-08T08:28:16;101957.25;;;31.46;40.62
8101;BME280;4093;53.470;9.832;2023-07-08T08:30:46;101959.06;;;32.07;38.73
8101;BME280;4093;53.470;9.832;2023-07-08T08:33:14;101958.50;;;31.42;39.53
8101;BME280;4093;53.470;9.832;2023-07-08T08:35:42;101993.84;;;32.86;38.08
8101;BME280;4093;53.470;9.832;2023-07-08T08:38:11;101970.22;;;33.38;37.81
8101;BME280;4093;53.470;9.832;2023-07-08T08:40:39;101973.84;;;33.00;37.96
8101;BME280;4093;53.470;9.832;2023-07-08T08:43:12;101968.09;;;31.24;40.74
8101;BME280;4093;53.470;9.832;2023-07-08T08:45:48;101969.00;;;31.13;41.48
8101;BME280;4093;53.470;9.832;2023-07-08T08:48:19;101962.13;;;32.82;40.04
8101;BME280;4093;53.470;9.832;2023-07-08T08:50:51;101962.50;;;33.16;39.07
8101;BME280;4093;53.470;9.832;2023-07-08T08:53:20;101974.81;;;32.51;40.11
8101;BME280;4093;53.470;9.832;2023-07-08T08:55:52;101977.75;;;31.36;42.04
8101;BME280;4093;53.470;9.832;2023-07-08T08:58:33;101981.31;;;31.46;42.24
8101;BME280;4093;53.470;9.832;2023-07-08T09:01:10;101955.53;;;29.95;42.65
8101;BME280;4093;53.470;9.832;2023-07-08T09:03:44;101961.00;;;29.49;44.57
8101;BME280;4093;53.470;9.832;2023-07-08T09:06:16;101981.66;;;30.90;43.35
8101;BME280;4093;53.470;9.832;2023-07-08T09:08:45;101964.84;;;30.67;43.33
8101;BME280;4093;53.470;9.832;2023-07-08T09:11:21;101993.28;;;31.42;43.18
8101;BME280;4093;53.470;9.832;2023-07-08T09:13:52;101973.44;;;31.75;41.89
8101;BME280;4093;53.470;9.832;2023-07-08T09:16:26;101973.50;;;32.84;41.79
8101;BME280;4093;53.470;9.832;2023-07-08T09:19:00;101962.56;;;30.62;44.39
8101;BME280;4093;53.470;9.832;2023-07-08T09:21:33;101995.78;;;30.70;44.88
8101;BME280;4093;53.470;9.832;2023-07-08T09:24:07;101983.75;;;30.43;45.15
8101;BME280;4093;53.470;9.832;2023-07-08T09:26:36;101968.19;;;29.71;46.16
8101;BME280;4093;53.470;9.832;2023-07-08T09:29:09;101966.41;;;29.36;46.76
8101;BME280;4093;53.470;9.832;2023-07-08T09:31:39;101968.94;;;29.15;46.42
8101;BME280;4093;53.470;9.832;2023-07-08T09:34:13;101972.88;;;30.24;45.20
8101;BME280;4093;53.470;9.832;2023-07-08T09:36:43;101964.13;;;29.99;44.86
8101;BME280;4093;53.470;9.832;2023-07-08T09:39:13;101984.06;;;31.14;44.79
8101;BME280;4093;53.470;9.832;2023-07-08T09:41:42;101951.56;;;31.09;44.48
8101;BME280;4093;53.470;9.832;2023-07-08T09:44:17;101960.72;;;29.52;46.32
8101;BME280;4093;53.470;9.832;2023-07-08T09:46:47;101966.09;;;29.97;46.15
8101;BME280;4093;53.470;9.832;2023-07-08T09:49:17;101981.53;;;30.48;44.91
8101;BME280;4093;53.470;9.832;2023-07-08T09:51:46;101975.78;;;31.59;44.47
8101;BME280;4093;53.470;9.832;2023-07-08T09:54:18;101967.03;;;29.51;46.86
8101;BME280;4093;53.470;9.832;2023-07-08T09:56:54;101961.69;;;30.18;44.82
8101;BME280;4093;53.470;9.832;2023-07-08T09:59:28;101943.50;;;29.22;46.57
8101;BME280;4093;53.470;9.832;2023-07-08T10:02:02;101979.31;;;30.21;46.35
8101;BME280;4093;53.470;9.832;2023-07-08T10:04:31;101961.13;;;30.91;44.09
8101;BME280;4093;53.470;9.832;2023-07-08T10:06:59;101969.59;;;31.17;44.42
8101;BME280;4093;53.470;9.832;2023-07-08T10:09:27;101951.63;;;30.65;44.81
8101;BME280;4093;53.470;9.832;2023-07-08T10:12:00;101977.56;;;31.28;45.12
8101;BME280;4093;53.470;9.832;2023-07-08T10:14:33;101960.16;;;31.13;43.93
8101;BME280;4093;53.470;9.832;2023-07-08T10:17:04;101949.13;;;30.74;45.24
8101;BME280;4093;53.470;9.832;2023-07-08T10:19:32;101951.22;;;31.44;43.25
8101;BME280;4093;53.470;9.832;2023-07-08T10:22:15;101951.06;;;30.83;45.44
8101;BME280;4093;53.470;9.832;2023-07-08T10:24:58;101953.22;;;31.31;43.97
8101;BME280;4093;53.470;9.832;2023-07-08T10:27:35;101963.09;;;31.92;43.80
8101;BME280;4093;53.470;9.832;2023-07-08T10:30:14;101943.56;;;32.11;41.26
8101;BME280;4093;53.470;9.832;2023-07-08T10:32:55;101936.31;;;30.67;42.80
8101;BME280;4093;53.470;9.832;2023-07-08T10:35:30;101940.19;;;30.96;42.83
8101;BME280;4093;53.470;9.832;2023-07-08T10:38:21;101927.88;;;31.04;42.70
8101;BME280;4093;53.470;9.832;2023-07-08T10:40:54;101943.75;;;32.29;40.96
8101;BME280;4093;53.470;9.832;2023-07-08T10:43:38;101935.47;;;32.51;40.52
8101;BME280;4093;53.470;9.832;2023-07-08T10:46:19;101932.91;;;32.79;42.18
8101;BME280;4093;53.470;9.832;2023-07-08T10:49:01;101907.09;;;32.10;39.38
8101;BME280;4093;53.470;9.832;2023-07-08T10:51:38;101897.34;;;31.58;40.59
8101;BME280;4093;53.470;9.832;2023-07-08T10:54:21;101931.22;;;31.48;42.75
8101;BME280;4093;53.470;9.832;2023-07-08T10:56:55;101933.34;;;32.55;40.00
8101;BME280;4093;53.470;9.832;2023-07-08T10:59:40;101901.28;;;31.03;41.09
8101;BME280;4093;53.470;9.832;2023-07-08T11:02:29;101921.91;;;31.83;40.69
8101;BME280;4093;53.470;9.832;2023-07-08T11:05:17;101923.56;;;32.15;42.41
8101;BME280;4093;53.470;9.832;2023-07-08T11:07:53;101926.16;;;32.45;41.39
8101;BME280;4093;53.470;9.832;2023-07-08T11:10:25;101902.78;;;31.78;40.12
8101;BME280;4093;53.470;9.832;2023-07-08T11:12:59;101920.03;;;32.24;41.30
8101;BME280;4093;53.470;9.832;2023-07-08T11:15:33;101902.59;;;31.70;41.62
8101;BME280;4093;53.470;9.832;2023-07-08T11:18:06;101917.47;;;31.93;41.05
8101;BME280;4093;53.470;9.832;2023-07-08T11:20:41;101901.13;;;31.25;42.43
8101;BME280;4093;53.470;9.832;2023-07-08T11:23:19;101927.47;;;31.91;41.20
8101;BME280;4093;53.470;9.832;2023-07-08T11:26:03;101909.34;;;32.34;40.79
8101;BME280;4093;53.470;9.832;2023-07-08T11:28:32;101899.59;;;32.03;40.18
8101;BME280;4093;53.470;9.832;2023-07-08T11:31:01;101914.56;;;31.66;40.00
8101;BME280;4093;53.470;9.832;2023-07-08T11:33:30;101911.72;;;32.37;37.95
8101;BME280;4093;53.470;9.832;2023-07-08T11:36:03;101891.81;;;31.20;39.85
8101;BME280;4093;53.470;9.832;2023-07-08T11:38:33;101915.69;;;32.23;39.07
8101;BME280;4093;53.470;9.832;2023-07-08T11:41:04;101894.41;;;32.31;36.94
8101;BME280;4093;53.470;9.832;2023-07-08T11:43:42;101881.72;;;31.02;40.48
8101;BME280;4093;53.470;9.832;2023-07-08T11:46:15;101905.78;;;31.02;41.63
8101;BME280;4093;53.470;9.832;2023-07-08T11:48:47;101894.59;;;31.18;40.26
8101;BME280;4093;53.470;9.832;2023-07-08T11:51:27;101911.72;;;31.98;39.81
8101;BME280;4093;53.470;9.832;2023-07-08T11:54:09;101895.97;;;31.74;37.74
8101;BME280;4093;53.470;9.832;2023-07-08T11:56:48;101901.47;;;33.28;36.63
8101;BME280;4093;53.470;9.832;2023-07-08T11:59:19;101894.81;;;33.42;37.23
8101;BME280;4093;53.470;9.832;2023-07-08T12:01:52;101871.28;;;32.11;39.96
8101;BME280;4093;53.470;9.832;2023-07-08T12:04:26;101896.38;;;32.78;38.91
8101;BME280;4093;53.470;9.832;2023-07-08T12:07:14;101886.03;;;32.92;37.85
8101;BME280;4093;53.470;9.832;2023-07-08T12:09:48;101882.00;;;32.69;36.96
8101;BME280;4093;53.470;9.832;2023-07-08T12:12:22;101868.88;;;32.27;38.06
8101;BME280;4093;53.470;9.832;2023-07-08T12:14:54;101869.66;;;32.95;36.29
8101;BME280;4093;53.470;9.832;2023-07-08T12:17:26;101880.25;;;33.07;35.84
8101;BME280;4093;53.470;9.832;2023-07-08T12:19:57;101855.25;;;33.71;36.55
8101;BME280;4093;53.470;9.832;2023-07-08T12:22:32;101857.13;;;32.86;35.40
8101;BME280;4093;53.470;9.832;2023-07-08T12:25:00;101860.78;;;33.05;36.13
8101;BME280;4093;53.470;9.832;2023-07-08T12:27:31;101851.84;;;32.09;36.27
8101;BME280;4093;53.470;9.832;2023-07-08T12:29:59;101850.66;;;31.82;36.71
8101;BME280;4093;53.470;9.832;2023-07-08T12:32:27;101870.16;;;32.03;36.95
8101;BME280;4093;53.470;9.832;2023-07-08T12:34:55;101879.72;;;33.03;35.81
8101;BME280;4093;53.470;9.832;2023-07-08T12:37:23;101857.34;;;33.50;34.65
8101;BME280;4093;53.470;9.832;2023-07-08T12:39:56;101854.88;;;32.91;35.39
8101;BME280;4093;53.470;9.832;2023-07-08T12:42:26;101845.94;;;32.44;36.06
8101;BME280;4093;53.470;9.832;2023-07-08T12:44:54;101866.31;;;32.84;37.32
8101;BME280;4093;53.470;9.832;2023-07-08T12:47:22;101864.00;;;33.46;35.76
8101;BME280;4093;53.470;9.832;2023-07-08T12:49:50;101859.16;;;34.04;33.69
8101;BME280;4093;53.470;9.832;2023-07-08T12:52:21;101830.00;;;32.33;36.33
8101;BME280;4093;53.470;9.832;2023-07-08T12:54:49;101862.13;;;33.18;36.74
8101;BME280;4093;53.470;9.832;2023-07-08T12:57:18;101863.84;;;34.20;36.22
8101;BME280;4093;53.470;9.832;2023-07-08T12:59:46;101838.81;;;33.29;35.13
8101;BME280;4093;53.470;9.832;2023-07-08T13:02:15;101838.47;;;33.69;34.27
8101;BME280;4093;53.470;9.832;2023-07-08T13:04:45;101832.59;;;32.91;36.08
8101;BME280;4093;53.470;9.832;2023-07-08T13:07:23;101839.22;;;32.87;35.51
8101;BME280;4093;53.470;9.832;2023-07-08T13:09:51;101837.53;;;33.78;34.60
8101;BME280;4093;53.470;9.832;2023-07-08T13:12:21;101829.44;;;32.29;36.56
8101;BME280;4093;53.470;9.832;2023-07-08T13:14:52;101844.50;;;32.49;36.97
8101;BME280;4093;53.470;9.832;2023-07-08T13:17:20;101850.75;;;33.44;36.67
8101;BME280;4093;53.470;9.832;2023-07-08T13:19:49;101860.78;;;33.88;35.95
8101;BME280;4093;53.470;9.832;2023-07-08T13:22:18;101815.78;;;32.22;36.01
8101;BME280;4093;53.470;9.832;2023-07-08T13:24:47;101843.53;;;33.45;35.25
8101;BME280;4093;53.470;9.832;2023-07-08T13:27:22;101823.19;;;33.14;35.46
8101;BME280;4093;53.470;9.832;2023-07-08T13:29:51;101829.75;;;33.30;34.93